sensor_id;sensor_type;location;lat;lon;timestamp;P1;durP1;ratioP1;P2;durP2;ratioP2
9547;SDS011;4812;51.992;8.648;2022-09-09T00:00:43;15.07;;;13.87;;
9547;SDS011;4812;51.992;8.648;2022-09-09T00:03:14;15.00;;;13.80;;
9547;SDS011;4812;51.992;8.648;2022-09-09T00:05:47;14.30;;;13.40;;
9547;SDS011;4812;51.992;8.648;2022-09-09T00:08:19;15.07;;;13.90;;
9547;SDS011;4812;51.992;8.648;2022-09-09T00:10:51;15.07;;;13.67;;
9547;SDS011;4812;51.992;8.648;2022-09-09T00:13:26;15.03;;;13.70;;
9547;SDS011;4812;51.992;8.648;2022-09-09T00:15:57;14.90;;;13.70;;
9547;SDS011;4812;51.992;8.648;2022-09-09T00:18:28;14.50;;;13.40;;
9547;SDS011;4812;51.992;8.648;2022-09-09T00:21:02;14.13;;;13.10;;
9547;SDS011;4812;51.992;8.648;2022-09-09T00:23:34;14.33;;;13.23;;
9547;SDS011;4812;51.992;8.648;2022-09-09T00:26:07;13.93;;;12.93;;
9547;SDS011;4812;51.992;8.648;2022-09-09T00:28:39;13.90;;;12.90;;
9547;SDS011;4812;51.992;8.648;2022-09-09T00:31:16;13.97;;;12.90;;
9547;SDS011;4812;51.992;8.648;2022-09-09T00:33:48;13.60;;;12.70;;
9547;SDS011;4812;51.992;8.648;2022-09-09T00:36:17;14.20;;;13.13;;
9547;SDS011;4812;51.992;8.648;2022-09-09T00:38:47;14.00;;;13.10;;
9547;SDS011;4812;51.992;8.648;2022-09-09T00:41:20;14.17;;;13.17;;
9547;SDS011;4812;51.992;8.648;2022-09-09T00:43:52;14.93;;;13.70;;
9547;SDS011;4812;51.992;8.648;2022-09-09T00:46:41;14.47;;;13.47;;
9547;SDS011;4812;51.992;8.648;2022-09-09T00:49:20;14.30;;;13.30;;
9547;SDS011;4812;51.992;8.648;2022-09-09T00:51:56;14.23;;;13.30;;
9547;SDS011;4812;51.992;8.648;2022-09-09T00:54:31;15.30;;;14.20;;
9547;SDS011;4812;51.992;8.648;2022-09-09T00:57:10;14.20;;;13.20;;
9547;SDS011;4812;51.992;8.648;2022-09-09T00:59:46;14.47;;;13.10;;
9547;SDS011;4812;51.992;8.648;2022-09-09T01:02:17;14.17;;;13.17;;
9547;SDS011;4812;51.992;8.648;2022-09-09T01:04:54;14.90;;;13.23;;
9547;SDS011;4812;51.992;8.648;2022-09-09T01:07:22;13.87;;;12.87;;
9547;SDS011;4812;51.992;8.648;2022-09-09T01:09:54;14.20;;;13.10;;
9547;SDS011;4812;51.992;8.648;2022-09-09T01:12:25;14.37;;;13.20;;
9547;SDS011;4812;51.992;8.648;2022-09-09T01:15:02;13.67;;;12.67;;
9547;SDS011;4812;51.992;8.648;2022-09-09T01:17:46;13.80;;;12.80;;
9547;SDS011;4812;51.992;8.648;2022-09-09T01:20:18;13.60;;;12.60;;
9547;SDS011;4812;51.992;8.648;2022-09-09T01:22:56;13.47;;;12.40;;
9547;SDS011;4812;51.992;8.648;2022-09-09T01:28:34;13.30;;;12.30;;
9547;SDS011;4812;51.992;8.648;2022-09-09T01:31:11;12.63;;;11.73;;
9547;SDS011;4812;51.992;8.648;2022-09-09T01:33:45;13.93;;;12.77;;
9547;SDS011;4812;51.992;8.648;2022-09-09T01:36:15;13.87;;;12.37;;
9547;SDS011;4812;51.992;8.648;2022-09-09T01:38:49;12.87;;;11.97;;
9547;SDS011;4812;51.992;8.648;2022-09-09T01:41:19;13.20;;;12.23;;
9547;SDS011;4812;51.992;8.648;2022-09-09T01:43:55;13.30;;;12.20;;
9547;SDS011;4812;51.992;8.648;2022-09-09T01:46:24;13.17;;;11.93;;
9547;SDS011;4812;51.992;8.648;2022-09-09T01:48:52;13.47;;;12.37;;
9547;SDS011;4812;51.992;8.648;2022-09-09T01:51:20;12.80;;;11.80;;
9547;SDS011;4812;51.992;8.648;2022-09-09T01:53:50;12.80;;;12.00;;
9547;SDS011;4812;51.992;8.648;2022-09-09T01:56:22;12.90;;;12.00;;
9547;SDS011;4812;51.992;8.648;2022-09-09T01:59:02;13.17;;;12.20;;
9547;SDS011;4812;51.992;8.648;2022-09-09T02:01:38;13.10;;;12.30;;
9547;SDS011;4812;51.992;8.648;2022-09-09T02:04:16;13.53;;;12.63;;
9547;SDS011;4812;51.992;8.648;2022-09-09T02:06:52;13.60;;;12.70;;
9547;SDS011;4812;51.992;8.648;2022-09-09T02:09:26;13.90;;;12.87;;
9547;SDS011;4812;51.992;8.648;2022-09-09T02:11:59;13.30;;;12.30;;
9547;SDS011;4812;51.992;8.648;2022-09-09T02:14:39;13.77;;;12.40;;
9547;SDS011;4812;51.992;8.648;2022-09-09T02:17:09;13.30;;;12.30;;
9547;SDS011;4812;51.992;8.648;2022-09-09T02:19:55;14.07;;;12.77;;
9547;SDS011;4812;51.992;8.648;2022-09-09T02:22:38;13.23;;;12.23;;
9547;SDS011;4812;51.992;8.648;2022-09-09T02:25:07;13.50;;;12.60;;
9547;SDS011;4812;51.992;8.648;2022-09-09T02:27:37;13.47;;;12.47;;
9547;SDS011;4812;51.992;8.648;2022-09-09T02:30:07;13.37;;;12.23;;
9547;SDS011;4812;51.992;8.648;2022-09-09T02:32:45;13.10;;;12.10;;
9547;SDS011;4812;51.992;8.648;2022-09-09T02:35:15;12.60;;;11.77;;
9547;SDS011;4812;51.992;8.648;2022-09-09T02:37:45;13.57;;;12.57;;
9547;SDS011;4812;51.992;8.648;2022-09-09T02:40:14;13.27;;;12.17;;
9547;SDS011;4812;51.992;8.648;2022-09-09T02:42:48;12.27;;;11.43;;
9547;SDS011;4812;51.992;8.648;2022-09-09T02:45:19;12.80;;;11.90;;
9547;SDS011;4812;51.992;8.648;2022-09-09T02:47:53;12.70;;;11.80;;
9547;SDS011;4812;51.992;8.648;2022-09-09T02:50:29;13.23;;;12.20;;
9547;SDS011;4812;51.992;8.648;2022-09-09T02:53:03;13.40;;;12.40;;
9547;SDS011;4812;51.992;8.648;2022-09-09T02:55:38;13.80;;;12.37;;
9547;SDS011;4812;51.992;8.648;2022-09-09T02:58:12;13.63;;;12.50;;
9547;SDS011;4812;51.992;8.648;2022-09-09T03:00:47;14.10;;;12.97;;
9547;SDS011;4812;51.992;8.648;2022-09-09T03:03:18;14.10;;;13.07;;
9547;SDS011;4812;51.992;8.648;2022-09-09T03:05:48;13.70;;;12.70;;
9547;SDS011;4812;51.992;8.648;2022-09-09T03:08:16;14.13;;;12.70;;
9547;SDS011;4812;51.992;8.648;2022-09-09T03:10:45;13.90;;;12.63;;
9547;SDS011;4812;51.992;8.648;2022-09-09T03:13:15;14.03;;;12.97;;
9547;SDS011;4812;51.992;8.648;2022-09-09T03:15:45;13.93;;;12.83;;
9547;SDS011;4812;51.992;8.648;2022-09-09T03:18:16;14.13;;;13.03;;
9547;SDS011;4812;51.992;8.648;2022-09-09T03:20:48;13.83;;;12.83;;
9547;SDS011;4812;51.992;8.648;2022-09-09T03:23:16;14.07;;;12.77;;
9547;SDS011;4812;51.992;8.648;2022-09-09T03:25:48;14.10;;;13.00;;
9547;SDS011;4812;51.992;8.648;2022-09-09T03:28:20;14.00;;;12.97;;
9547;SDS011;4812;51.992;8.648;2022-09-09T03:30:49;14.00;;;13.00;;
9547;SDS011;4812;51.992;8.648;2022-09-09T03:33:18;14.43;;;13.07;;
9547;SDS011;4812;51.992;8.648;2022-09-09T03:35:46;14.33;;;13.33;;
9547;SDS011;4812;51.992;8.648;2022-09-09T03:38:16;14.53;;;13.30;;
9547;SDS011;4812;51.992;8.648;2022-09-09T03:40:48;14.73;;;13.50;;
9547;SDS011;4812;51.992;8.648;2022-09-09T03:43:17;14.37;;;13.10;;
9547;SDS011;4812;51.992;8.648;2022-09-09T03:45:47;14.50;;;13.23;;
9547;SDS011;4812;51.992;8.648;2022-09-09T03:48:15;14.70;;;13.50;;
9547;SDS011;4812;51.992;8.648;2022-09-09T03:50:46;14.40;;;13.30;;
9547;SDS011;4812;51.992;8.648;2022-09-09T03:53:14;14.43;;;13.33;;
9547;SDS011;4812;51.992;8.648;2022-09-09T03:55:43;14.37;;;13.30;;
9547;SDS011;4812;51.992;8.648;2022-09-09T03:58:12;15.30;;;13.70;;
9547;SDS011;4812;51.992;8.648;2022-09-09T04:00:41;14.00;;;13.10;;
9547;SDS011;4812;51.992;8.648;2022-09-09T04:03:12;13.93;;;13.00;;
9547;SDS011;4812;51.992;8.648;2022-09-09T04:05:40;15.00;;;13.70;;
9547;SDS011;4812;51.992;8.648;2022-09-09T04:08:08;15.07;;;13.87;;
9547;SDS011;4812;51.992;8.648;2022-09-09T04:10:36;14.93;;;13.53;;
9547;SDS011;4812;51.992;8.648;2022-09-09T04:13:04;15.10;;;13.80;;
9547;SDS011;4812;51.992;8.648;2022-09-09T04:15:32;15.17;;;13.97;;
9547;SDS011;4812;51.992;8.648;2022-09-09T04:18:02;14.30;;;13.30;;
9547;SDS011;4812;51.992;8.648;2022-09-09T04:20:31;14.87;;;13.67;;
9547;SDS011;4812;51.992;8.648;2022-09-09T04:22:58;15.30;;;13.70;;
9547;SDS011;4812;51.992;8.648;2022-09-09T04:25:26;14.53;;;13.43;;
9547;SDS011;4812;51.992;8.648;2022-09-09T04:27:53;14.53;;;13.33;;
9547;SDS011;4812;51.992;8.648;2022-09-09T04:30:22;15.00;;;13.73;;
9547;SDS011;4812;51.992;8.648;2022-09-09T04:32:50;14.77;;;13.67;;
9547;SDS011;4812;51.992;8.648;2022-09-09T04:35:18;18.13;;;16.63;;
9547;SDS011;4812;51.992;8.648;2022-09-09T04:37:48;18.80;;;17.20;;
9547;SDS011;4812;51.992;8.648;2022-09-09T04:40:16;18.10;;;16.60;;
9547;SDS011;4812;51.992;8.648;2022-09-09T04:42:44;17.63;;;16.23;;
9547;SDS011;4812;51.992;8.648;2022-09-09T04:45:14;17.23;;;15.67;;
9547;SDS011;4812;51.992;8.648;2022-09-09T04:47:41;17.13;;;15.83;;
9547;SDS011;4812;51.992;8.648;2022-09-09T04:50:09;16.90;;;15.60;;
9547;SDS011;4812;51.992;8.648;2022-09-09T04:52:38;17.20;;;15.57;;
9547;SDS011;4812;51.992;8.648;2022-09-09T04:55:07;17.53;;;16.17;;
9547;SDS011;4812;51.992;8.648;2022-09-09T04:57:35;16.77;;;15.20;;
9547;SDS011;4812;51.992;8.648;2022-09-09T05:00:03;17.10;;;15.43;;
9547;SDS011;4812;51.992;8.648;2022-09-09T05:02:36;17.10;;;15.70;;
9547;SDS011;4812;51.992;8.648;2022-09-09T05:05:04;16.87;;;15.47;;
9547;SDS011;4812;51.992;8.648;2022-09-09T05:07:33;16.80;;;15.50;;
9547;SDS011;4812;51.992;8.648;2022-09-09T05:10:00;17.57;;;15.97;;
9547;SDS011;4812;51.992;8.648;2022-09-09T05:12:32;16.37;;;15.17;;
9547;SDS011;4812;51.992;8.648;2022-09-09T05:15:00;17.90;;;16.20;;
9547;SDS011;4812;51.992;8.648;2022-09-09T05:17:29;16.90;;;15.40;;
9547;SDS011;4812;51.992;8.648;2022-09-09T05:19:56;16.57;;;15.30;;
9547;SDS011;4812;51.992;8.648;2022-09-09T05:22:24;16.83;;;15.53;;
9547;SDS011;4812;51.992;8.648;2022-09-09T05:24:52;16.90;;;15.40;;
9547;SDS011;4812;51.992;8.648;2022-09-09T05:27:20;17.30;;;15.80;;
9547;SDS011;4812;51.992;8.648;2022-09-09T05:29:50;16.50;;;15.00;;
9547;SDS011;4812;51.992;8.648;2022-09-09T05:32:17;17.43;;;15.80;;
9547;SDS011;4812;51.992;8.648;2022-09-09T05:34:47;16.77;;;15.47;;
9547;SDS011;4812;51.992;8.648;2022-09-09T05:37:16;16.63;;;15.40;;
9547;SDS011;4812;51.992;8.648;2022-09-09T05:39:44;16.53;;;15.03;;
9547;SDS011;4812;51.992;8.648;2022-09-09T05:42:12;16.00;;;14.90;;
9547;SDS011;4812;51.992;8.648;2022-09-09T05:44:39;15.97;;;14.50;;
9547;SDS011;4812;51.992;8.648;2022-09-09T05:47:10;15.90;;;14.60;;
9547;SDS011;4812;51.992;8.648;2022-09-09T05:49:38;15.50;;;14.40;;
9547;SDS011;4812;51.992;8.648;2022-09-09T05:52:06;15.87;;;14.50;;
9547;SDS011;4812;51.992;8.648;2022-09-09T05:54:33;15.67;;;14.33;;
9547;SDS011;4812;51.992;8.648;2022-09-09T05:57:01;15.60;;;14.33;;
9547;SDS011;4812;51.992;8.648;2022-09-09T05:59:28;16.67;;;14.90;;
9547;SDS011;4812;51.992;8.648;2022-09-09T06:01:59;15.73;;;14.53;;
9547;SDS011;4812;51.992;8.648;2022-09-09T06:04:35;16.40;;;14.93;;
9547;SDS011;4812;51.992;8.648;2022-09-09T06:07:04;15.80;;;14.60;;
9547;SDS011;4812;51.992;8.648;2022-09-09T06:09:31;16.37;;;15.07;;
9547;SDS011;4812;51.992;8.648;2022-09-09T06:11:59;16.17;;;15.03;;
9547;SDS011;4812;51.992;8.648;2022-09-09T06:14:29;16.80;;;15.50;;
9547;SDS011;4812;51.992;8.648;2022-09-09T06:16:58;16.70;;;15.03;;
9547;SDS011;4812;51.992;8.648;2022-09-09T06:19:28;16.30;;;15.00;;
9547;SDS011;4812;51.992;8.648;2022-09-09T06:21:59;16.47;;;15.07;;
9547;SDS011;4812;51.992;8.648;2022-09-09T06:24:29;16.60;;;15.20;;
9547;SDS011;4812;51.992;8.648;2022-09-09T06:26:58;16.67;;;15.40;;
9547;SDS011;4812;51.992;8.648;2022-09-09T06:29:30;17.13;;;15.67;;
9547;SDS011;4812;51.992;8.648;2022-09-09T06:31:57;17.57;;;15.80;;
9547;SDS011;4812;51.992;8.648;2022-09-09T06:34:26;16.53;;;15.33;;
9547;SDS011;4812;51.992;8.648;2022-09-09T06:36:56;16.60;;;15.30;;
9547;SDS011;4812;51.992;8.648;2022-09-09T06:39:29;16.60;;;15.40;;
9547;SDS011;4812;51.992;8.648;2022-09-09T06:41:57;17.17;;;15.50;;
9547;SDS011;4812;51.992;8.648;2022-09-09T06:45:00;16.70;;;15.30;;
9547;SDS011;4812;51.992;8.648;2022-09-09T06:47:44;17.27;;;15.80;;
9547;SDS011;4812;51.992;8.648;2022-09-09T06:50:13;17.40;;;15.80;;
9547;SDS011;4812;51.992;8.648;2022-09-09T06:52:41;16.73;;;15.50;;
9547;SDS011;4812;51.992;8.648;2022-09-09T06:55:10;16.60;;;15.40;;
9547;SDS011;4812;51.992;8.648;2022-09-09T06:57:39;17.27;;;15.73;;
9547;SDS011;4812;51.992;8.648;2022-09-09T07:00:12;16.97;;;15.67;;
9547;SDS011;4812;51.992;8.648;2022-09-09T07:02:40;16.77;;;15.30;;
9547;SDS011;4812;51.992;8.648;2022-09-09T07:05:09;17.50;;;15.87;;
9547;SDS011;4812;51.992;8.648;2022-09-09T07:07:38;17.73;;;16.00;;
9547;SDS011;4812;51.992;8.648;2022-09-09T07:10:07;17.03;;;15.73;;
9547;SDS011;4812;51.992;8.648;2022-09-09T07:12:37;18.10;;;16.60;;
9547;SDS011;4812;51.992;8.648;2022-09-09T07:15:08;17.37;;;15.97;;
9547;SDS011;4812;51.992;8.648;2022-09-09T07:17:41;17.07;;;15.77;;
9547;SDS011;4812;51.992;8.648;2022-09-09T07:20:09;17.60;;;16.10;;
9547;SDS011;4812;51.992;8.648;2022-09-09T07:22:37;17.80;;;16.07;;
9547;SDS011;4812;51.992;8.648;2022-09-09T07:25:06;17.33;;;15.93;;
9547;SDS011;4812;51.992;8.648;2022-09-09T07:27:35;16.80;;;15.40;;
9547;SDS011;4812;51.992;8.648;2022-09-09T07:30:06;17.90;;;16.10;;
9547;SDS011;4812;51.992;8.648;2022-09-09T07:32:34;17.93;;;16.10;;
9547;SDS011;4812;51.992;8.648;2022-09-09T07:35:02;17.23;;;15.90;;
9547;SDS011;4812;51.992;8.648;2022-09-09T07:37:29;18.60;;;16.63;;
9547;SDS011;4812;51.992;8.648;2022-09-09T07:39:57;17.83;;;16.30;;
9547;SDS011;4812;51.992;8.648;2022-09-09T07:42:24;17.40;;;16.10;;
9547;SDS011;4812;51.992;8.648;2022-09-09T07:44:52;17.50;;;16.00;;
9547;SDS011;4812;51.992;8.648;2022-09-09T07:47:22;18.23;;;16.27;;
9547;SDS011;4812;51.992;8.648;2022-09-09T07:49:50;18.83;;;16.90;;
9547;SDS011;4812;51.992;8.648;2022-09-09T07:52:23;18.97;;;17.23;;
9547;SDS011;4812;51.992;8.648;2022-09-09T07:54:55;21.07;;;16.07;;
9547;SDS011;4812;51.992;8.648;2022-09-09T07:57:23;18.43;;;16.63;;
9547;SDS011;4812;51.992;8.648;2022-09-09T07:59:52;18.60;;;16.83;;
9547;SDS011;4812;51.992;8.648;2022-09-09T08:02:22;18.33;;;16.73;;
9547;SDS011;4812;51.992;8.648;2022-09-09T08:04:50;18.30;;;16.90;;
9547;SDS011;4812;51.992;8.648;2022-09-09T08:07:19;17.83;;;16.40;;
9547;SDS011;4812;51.992;8.648;2022-09-09T08:09:52;18.90;;;17.20;;
9547;SDS011;4812;51.992;8.648;2022-09-09T08:12:24;18.40;;;16.70;;
9547;SDS011;4812;51.992;8.648;2022-09-09T08:14:52;19.13;;;17.23;;
9547;SDS011;4812;51.992;8.648;2022-09-09T08:17:23;20.00;;;18.20;;
9547;SDS011;4812;51.992;8.648;2022-09-09T08:19:50;20.57;;;18.60;;
9547;SDS011;4812;51.992;8.648;2022-09-09T08:22:25;20.70;;;18.80;;
9547;SDS011;4812;51.992;8.648;2022-09-09T08:24:53;21.50;;;19.20;;
9547;SDS011;4812;51.992;8.648;2022-09-09T08:27:24;21.87;;;19.83;;
9547;SDS011;4812;51.992;8.648;2022-09-09T08:29:53;22.13;;;20.03;;
9547;SDS011;4812;51.992;8.648;2022-09-09T08:32:23;21.73;;;19.53;;
9547;SDS011;4812;51.992;8.648;2022-09-09T08:34:52;21.67;;;19.47;;
9547;SDS011;4812;51.992;8.648;2022-09-09T08:37:26;21.40;;;19.40;;
9547;SDS011;4812;51.992;8.648;2022-09-09T08:39:53;21.10;;;19.20;;
9547;SDS011;4812;51.992;8.648;2022-09-09T08:45:18;22.57;;;20.57;;
9547;SDS011;4812;51.992;8.648;2022-09-09T08:47:57;22.17;;;20.10;;
9547;SDS011;4812;51.992;8.648;2022-09-09T08:50:32;22.77;;;20.60;;
9547;SDS011;4812;51.992;8.648;2022-09-09T08:53:11;22.47;;;20.37;;
9547;SDS011;4812;51.992;8.648;2022-09-09T08:55:45;22.53;;;20.33;;
9547;SDS011;4812;51.992;8.648;2022-09-09T08:58:18;21.63;;;19.67;;
9547;SDS011;4812;51.992;8.648;2022-09-09T09:00:56;22.07;;;19.97;;
9547;SDS011;4812;51.992;8.648;2022-09-09T09:03:35;21.90;;;19.77;;
9547;SDS011;4812;51.992;8.648;2022-09-09T09:06:10;21.17;;;19.37;;
9547;SDS011;4812;51.992;8.648;2022-09-09T09:08:46;21.17;;;19.27;;
9547;SDS011;4812;51.992;8.648;2022-09-09T09:11:15;20.80;;;19.00;;
9547;SDS011;4812;51.992;8.648;2022-09-09T09:13:44;21.20;;;18.93;;
9547;SDS011;4812;51.992;8.648;2022-09-09T09:16:19;20.63;;;18.77;;
9547;SDS011;4812;51.992;8.648;2022-09-09T09:18:52;21.30;;;19.40;;
9547;SDS011;4812;51.992;8.648;2022-09-09T09:21:25;21.17;;;19.37;;
9547;SDS011;4812;51.992;8.648;2022-09-09T09:23:58;21.97;;;19.80;;
9547;SDS011;4812;51.992;8.648;2022-09-09T09:26:30;21.53;;;19.47;;
9547;SDS011;4812;51.992;8.648;2022-09-09T09:29:03;21.87;;;19.80;;
9547;SDS011;4812;51.992;8.648;2022-09-09T09:31:38;21.37;;;19.47;;
9547;SDS011;4812;51.992;8.648;2022-09-09T09:34:08;22.03;;;20.10;;
9547;SDS011;4812;51.992;8.648;2022-09-09T09:36:38;21.73;;;19.60;;
9547;SDS011;4812;51.992;8.648;2022-09-09T09:39:21;22.17;;;20.07;;
9547;SDS011;4812;51.992;8.648;2022-09-09T09:42:10;22.37;;;20.27;;
9547;SDS011;4812;51.992;8.648;2022-09-09T09:44:42;22.27;;;20.17;;
9547;SDS011;4812;51.992;8.648;2022-09-09T09:47:14;21.97;;;19.97;;
9547;SDS011;4812;51.992;8.648;2022-09-09T09:49:52;22.60;;;20.67;;
9547;SDS011;4812;51.992;8.648;2022-09-09T09:52:22;22.50;;;20.40;;
9547;SDS011;4812;51.992;8.648;2022-09-09T09:54:51;21.73;;;19.73;;
9547;SDS011;4812;51.992;8.648;2022-09-09T09:57:22;21.07;;;19.10;;
9547;SDS011;4812;51.992;8.648;2022-09-09T10:00:00;21.53;;;19.37;;
9547;SDS011;4812;51.992;8.648;2022-09-09T10:02:40;21.20;;;19.23;;
9547;SDS011;4812;51.992;8.648;2022-09-09T10:05:17;21.47;;;19.57;;
9547;SDS011;4812;51.992;8.648;2022-09-09T10:08:00;21.70;;;19.60;;
9547;SDS011;4812;51.992;8.648;2022-09-09T10:10:33;21.17;;;19.37;;
9547;SDS011;4812;51.992;8.648;2022-09-09T10:13:14;21.17;;;19.07;;
9547;SDS011;4812;51.992;8.648;2022-09-09T10:15:48;21.27;;;19.37;;
9547;SDS011;4812;51.992;8.648;2022-09-09T10:18:38;21.60;;;19.70;;
9547;SDS011;4812;51.992;8.648;2022-09-09T10:21:16;21.80;;;19.90;;
9547;SDS011;4812;51.992;8.648;2022-09-09T10:23:55;22.63;;;20.60;;
9547;SDS011;4812;51.992;8.648;2022-09-09T10:26:32;23.40;;;21.37;;
9547;SDS011;4812;51.992;8.648;2022-09-09T10:32:23;22.80;;;20.63;;
9547;SDS011;4812;51.992;8.648;2022-09-09T10:35:10;22.50;;;20.47;;
9547;SDS011;4812;51.992;8.648;2022-09-09T10:37:44;22.50;;;20.50;;
9547;SDS011;4812;51.992;8.648;2022-09-09T10:40:20;22.77;;;20.63;;
9547;SDS011;4812;51.992;8.648;2022-09-09T10:42:53;23.03;;;20.90;;
9547;SDS011;4812;51.992;8.648;2022-09-09T10:45:26;23.07;;;20.87;;
9547;SDS011;4812;51.992;8.648;2022-09-09T10:48:04;23.27;;;21.27;;
9547;SDS011;4812;51.992;8.648;2022-09-09T10:50:50;22.23;;;20.33;;
9547;SDS011;4812;51.992;8.648;2022-09-09T10:53:40;21.23;;;19.17;;
9547;SDS011;4812;51.992;8.648;2022-09-09T10:56:15;21.20;;;19.40;;
9547;SDS011;4812;51.992;8.648;2022-09-09T10:58:47;21.50;;;19.70;;
9547;SDS011;4812;51.992;8.648;2022-09-09T11:01:17;20.33;;;18.73;;
9547;SDS011;4812;51.992;8.648;2022-09-09T11:03:47;20.27;;;18.67;;
9547;SDS011;4812;51.992;8.648;2022-09-09T11:06:20;20.37;;;18.57;;
9547;SDS011;4812;51.992;8.648;2022-09-09T11:08:51;20.97;;;19.07;;
9547;SDS011;4812;51.992;8.648;2022-09-09T11:11:25;21.27;;;19.40;;
9547;SDS011;4812;51.992;8.648;2022-09-09T11:13:57;21.40;;;19.40;;
9547;SDS011;4812;51.992;8.648;2022-09-09T11:16:28;20.20;;;18.50;;
9547;SDS011;4812;51.992;8.648;2022-09-09T11:22:03;20.77;;;19.20;;
9547;SDS011;4812;51.992;8.648;2022-09-09T11:24:37;21.23;;;19.33;;
9547;SDS011;4812;51.992;8.648;2022-09-09T11:27:07;21.57;;;19.70;;
9547;SDS011;4812;51.992;8.648;2022-09-09T11:32:38;21.70;;;19.70;;
9547;SDS011;4812;51.992;8.648;2022-09-09T11:35:26;21.47;;;19.47;;
9547;SDS011;4812;51.992;8.648;2022-09-09T11:40:48;21.03;;;19.43;;
9547;SDS011;4812;51.992;8.648;2022-09-09T11:43:23;21.20;;;19.47;;
9547;SDS011;4812;51.992;8.648;2022-09-09T11:45:52;21.37;;;19.57;;
9547;SDS011;4812;51.992;8.648;2022-09-09T11:48:29;21.90;;;20.00;;
9547;SDS011;4812;51.992;8.648;2022-09-09T11:51:01;20.83;;;19.13;;
9547;SDS011;4812;51.992;8.648;2022-09-09T11:53:31;21.30;;;19.60;;
9547;SDS011;4812;51.992;8.648;2022-09-09T11:56:01;21.97;;;20.10;;
9547;SDS011;4812;51.992;8.648;2022-09-09T11:58:32;21.70;;;19.80;;
9547;SDS011;4812;51.992;8.648;2022-09-09T12:01:12;20.87;;;18.97;;
9547;SDS011;4812;51.992;8.648;2022-09-09T12:03:51;21.33;;;19.30;;
9547;SDS011;4812;51.992;8.648;2022-09-09T12:06:28;21.30;;;19.40;;
9547;SDS011;4812;51.992;8.648;2022-09-09T12:09:04;21.47;;;19.70;;
9547;SDS011;4812;51.992;8.648;2022-09-09T12:11:35;21.43;;;19.53;;
9547;SDS011;4812;51.992;8.648;2022-09-09T12:14:03;21.57;;;19.87;;
9547;SDS011;4812;51.992;8.648;2022-09-09T12:16:31;20.60;;;18.97;;
9547;SDS011;4812;51.992;8.648;2022-09-09T12:19:05;22.97;;;20.57;;
9547;SDS011;4812;51.992;8.648;2022-09-09T12:21:34;21.67;;;19.80;;
9547;SDS011;4812;51.992;8.648;2022-09-09T12:24:06;21.40;;;19.47;;
9547;SDS011;4812;51.992;8.648;2022-09-09T12:26:39;20.90;;;19.27;;
9547;SDS011;4812;51.992;8.648;2022-09-09T12:29:14;21.53;;;19.80;;
9547;SDS011;4812;51.992;8.648;2022-09-09T12:31:53;21.70;;;20.10;;
9547;SDS011;4812;51.992;8.648;2022-09-09T12:34:28;21.70;;;20.10;;
9547;SDS011;4812;51.992;8.648;2022-09-09T12:37:02;21.30;;;19.80;;
9547;SDS011;4812;51.992;8.648;2022-09-09T12:39:33;21.38;;;19.85;;
9547;SDS011;4812;51.992;8.648;2022-09-09T12:42:03;21.30;;;19.70;;
9547;SDS011;4812;51.992;8.648;2022-09-09T12:44:31;19.50;;;18.20;;
9547;SDS011;4812;51.992;8.648;2022-09-09T12:47:00;17.85;;;16.75;;
9547;SDS011;4812;51.992;8.648;2022-09-09T12:49:30;16.08;;;15.05;;
9547;SDS011;4812;51.992;8.648;2022-09-09T12:52:01;16.55;;;15.23;;
9547;SDS011;4812;51.992;8.648;2022-09-09T12:54:32;15.90;;;14.80;;
9547;SDS011;4812;51.992;8.648;2022-09-09T12:57:00;15.60;;;14.70;;
9547;SDS011;4812;51.992;8.648;2022-09-09T12:59:36;15.45;;;14.45;;
9547;SDS011;4812;51.992;8.648;2022-09-09T13:02:11;15.80;;;14.80;;
9547;SDS011;4812;51.992;8.648;2022-09-09T13:04:44;15.95;;;14.75;;
9547;SDS011;4812;51.992;8.648;2022-09-09T13:07:13;15.90;;;14.98;;
9547;SDS011;4812;51.992;8.648;2022-09-09T13:09:42;16.23;;;15.23;;
9547;SDS011;4812;51.992;8.648;2022-09-09T13:12:12;16.58;;;15.55;;
9547;SDS011;4812;51.992;8.648;2022-09-09T13:14:43;15.38;;;14.48;;
9547;SDS011;4812;51.992;8.648;2022-09-09T13:17:17;15.75;;;14.80;;
9547;SDS011;4812;51.992;8.648;2022-09-09T13:19:47;15.67;;;14.67;;
9547;SDS011;4812;51.992;8.648;2022-09-09T13:22:20;16.37;;;15.07;;
9547;SDS011;4812;51.992;8.648;2022-09-09T13:25:02;16.17;;;15.17;;
9547;SDS011;4812;51.992;8.648;2022-09-09T13:27:32;16.93;;;15.43;;
9547;SDS011;4812;51.992;8.648;2022-09-09T13:33:20;16.20;;;14.90;;
9547;SDS011;4812;51.992;8.648;2022-09-09T13:35:50;16.07;;;15.07;;
9547;SDS011;4812;51.992;8.648;2022-09-09T13:38:19;16.00;;;14.83;;
9547;SDS011;4812;51.992;8.648;2022-09-09T13:40:53;15.83;;;14.73;;
9547;SDS011;4812;51.992;8.648;2022-09-09T13:43:23;16.70;;;15.50;;
9547;SDS011;4812;51.992;8.648;2022-09-09T13:45:54;16.43;;;15.33;;
9547;SDS011;4812;51.992;8.648;2022-09-09T13:48:24;15.97;;;14.97;;
9547;SDS011;4812;51.992;8.648;2022-09-09T13:50:59;15.48;;;14.52;;
9547;SDS011;4812;51.992;8.648;2022-09-09T13:53:29;15.63;;;14.57;;
9547;SDS011;4812;51.992;8.648;2022-09-09T13:55:56;15.45;;;14.55;;
9547;SDS011;4812;51.992;8.648;2022-09-09T13:58:25;15.80;;;14.73;;
9547;SDS011;4812;51.992;8.648;2022-09-09T14:00:54;15.90;;;14.80;;
9547;SDS011;4812;51.992;8.648;2022-09-09T14:03:23;15.77;;;14.68;;
9547;SDS011;4812;51.992;8.648;2022-09-09T14:05:51;15.32;;;14.32;;
9547;SDS011;4812;51.992;8.648;2022-09-09T14:08:21;14.85;;;14.05;;
9547;SDS011;4812;51.992;8.648;2022-09-09T14:10:51;15.98;;;14.88;;
9547;SDS011;4812;51.992;8.648;2022-09-09T14:13:22;15.15;;;14.18;;
9547;SDS011;4812;51.992;8.648;2022-09-09T14:15:49;16.00;;;14.98;;
9547;SDS011;4812;51.992;8.648;2022-09-09T14:18:18;15.50;;;14.57;;
9547;SDS011;4812;51.992;8.648;2022-09-09T14:20:46;15.25;;;14.35;;
9547;SDS011;4812;51.992;8.648;2022-09-09T14:23:14;14.82;;;13.98;;
9547;SDS011;4812;51.992;8.648;2022-09-09T14:25:41;15.02;;;14.13;;
9547;SDS011;4812;51.992;8.648;2022-09-09T14:28:12;15.02;;;14.05;;
9547;SDS011;4812;51.992;8.648;2022-09-09T14:30:41;15.20;;;14.20;;
9547;SDS011;4812;51.992;8.648;2022-09-09T14:33:11;16.58;;;15.20;;
9547;SDS011;4812;51.992;8.648;2022-09-09T14:35:41;15.63;;;14.63;;
9547;SDS011;4812;51.992;8.648;2022-09-09T14:38:09;15.18;;;14.30;;
9547;SDS011;4812;51.992;8.648;2022-09-09T14:40:44;15.20;;;14.30;;
9547;SDS011;4812;51.992;8.648;2022-09-09T14:43:12;15.38;;;14.55;;
9547;SDS011;4812;51.992;8.648;2022-09-09T14:45:40;15.13;;;14.23;;
9547;SDS011;4812;51.992;8.648;2022-09-09T14:48:09;15.60;;;14.60;;
9547;SDS011;4812;51.992;8.648;2022-09-09T14:50:37;16.00;;;15.10;;
9547;SDS011;4812;51.992;8.648;2022-09-09T14:53:07;15.10;;;14.30;;
9547;SDS011;4812;51.992;8.648;2022-09-09T14:55:36;15.67;;;14.77;;
9547;SDS011;4812;51.992;8.648;2022-09-09T14:58:04;16.03;;;14.93;;
9547;SDS011;4812;51.992;8.648;2022-09-09T15:00:32;16.10;;;15.00;;
9547;SDS011;4812;51.992;8.648;2022-09-09T15:03:00;16.13;;;15.03;;
9547;SDS011;4812;51.992;8.648;2022-09-09T15:05:27;15.90;;;14.80;;
9547;SDS011;4812;51.992;8.648;2022-09-09T15:07:57;15.37;;;14.57;;
9547;SDS011;4812;51.992;8.648;2022-09-09T15:10:26;16.00;;;15.00;;
9547;SDS011;4812;51.992;8.648;2022-09-09T15:12:54;15.37;;;14.37;;
9547;SDS011;4812;51.992;8.648;2022-09-09T15:15:22;15.73;;;14.63;;
9547;SDS011;4812;51.992;8.648;2022-09-09T15:17:50;15.00;;;14.20;;
9547;SDS011;4812;51.992;8.648;2022-09-09T15:20:17;16.13;;;14.70;;
9547;SDS011;4812;51.992;8.648;2022-09-09T15:22:45;15.17;;;14.20;;
9547;SDS011;4812;51.992;8.648;2022-09-09T15:25:12;15.27;;;14.30;;
9547;SDS011;4812;51.992;8.648;2022-09-09T15:27:41;15.10;;;14.20;;
9547;SDS011;4812;51.992;8.648;2022-09-09T15:30:10;15.30;;;14.30;;
9547;SDS011;4812;51.992;8.648;2022-09-09T15:32:38;15.47;;;14.47;;
9547;SDS011;4812;51.992;8.648;2022-09-09T15:35:06;15.13;;;14.10;;